Time;durP1;ratioP1;P1;durP2;ratioP2;P2;SDS_P1;SDS_P2;PMS_P1;PMS_P2;Temp;Humidity;BMP_temperature;BMP_pressure;BME280_temperature;BME280_humidity;BME280_pressure;Samples;Min_cycle;Max_cycle;Signal;HPM_P1;HPM_P2
2021/12/12 00:01:12;;;;;;;152.60;64.42;;;;;;;-0.69;90.43;101298.06;1666081;84;26027;-81
2021/12/12 00:03:47;;;;;;;160.35;64.03;;;;;;;-0.75;89.99;101297.15;1671070;84;28028;-80
2021/12/12 00:06:24;;;;;;;164.22;62.23;;;;;;;-0.82;89.89;101308.53;1667571;84;25939;-81
2021/12/12 00:08:56;;;;;;;170.53;64.10;;;;;;;-0.84;90.08;101309.09;1655471;84;25846;-81
2021/12/12 00:11:28;;;;;;;173.82;66.17;;;;;;;-0.88;90.11;101310.70;1669290;84;26710;-82
2021/12/12 00:14:05;;;;;;;167.15;60.00;;;;;;;-0.91;90.17;101310.42;1668122;84;25953;-80
2021/12/12 00:16:33;;;;;;;158.35;61.68;;;;;;;-0.94;90.24;101316.35;1668212;84;27475;-80
2021/12/12 00:19:00;;;;;;;174.15;66.05;;;;;;;-0.95;90.36;101312.02;1661822;84;25890;-80
2021/12/12 00:21:30;;;;;;;178.62;64.67;;;;;;;-0.96;90.33;101306.37;1661780;84;25759;-81
2021/12/12 00:23:57;;;;;;;165.00;64.97;;;;;;;-0.94;90.58;101308.46;1667557;84;26662;-80
2021/12/12 00:26:24;;;;;;;165.92;65.52;;;;;;;-0.92;90.58;101316.60;1663539;84;25798;-82
2021/12/12 00:28:51;;;;;;;176.15;65.57;;;;;;;-0.87;90.76;101325.05;1663788;84;28258;-81
2021/12/12 00:31:19;;;;;;;176.50;66.33;;;;;;;-0.83;90.66;101323.06;1652622;86;25750;-81
2021/12/12 00:33:51;;;;;;;182.45;67.70;;;;;;;-0.83;90.54;101318.66;1663602;84;25905;-82
2021/12/12 00:36:19;;;;;;;178.75;69.70;;;;;;;-0.79;90.63;101316.20;1659853;86;26175;-81
2021/12/12 00:38:50;;;;;;;183.90;69.03;;;;;;;-0.74;90.67;101317.70;1671693;84;25918;-80
2021/12/12 00:41:22;;;;;;;191.95;71.22;;;;;;;-0.72;90.65;101312.72;1663622;84;27541;-80
2021/12/12 00:43:51;;;;;;;182.22;67.08;;;;;;;-0.70;90.63;101317.88;1666705;84;25455;-82
2021/12/12 00:46:21;;;;;;;187.22;68.45;;;;;;;-0.66;90.71;101312.32;1659941;84;25686;-81
2021/12/12 00:48:48;;;;;;;173.73;68.70;;;;;;;-0.68;90.26;101319.47;1660240;85;26515;-81
2021/12/12 00:51:20;;;;;;;193.65;70.35;;;;;;;-0.69;90.31;101314.31;1644511;84;25889;-81
2021/12/12 00:53:46;;;;;;;189.62;73.92;;;;;;;-0.71;90.17;101314.42;1663654;84;27975;-80
2021/12/12 00:56:13;;;;;;;196.95;71.47;;;;;;;-0.72;90.27;101315.34;1663431;84;25894;-80
2021/12/12 00:58:39;;;;;;;201.52;69.80;;;;;;;-0.70;90.37;101316.55;1660332;84;26268;-81
2021/12/12 01:01:14;;;;;;;189.32;70.60;;;;;;;-0.71;90.22;101317.52;1663663;84;25815;-81
2021/12/12 01:03:46;;;;;;;220.88;75.22;;;;;;;-0.77;90.10;101317.91;1664142;84;25793;-82
2021/12/12 01:06:14;;;;;;;194.40;72.70;;;;;;;-0.78;90.25;101311.80;1667818;84;28284;-81
2021/12/12 01:08:44;;;;;;;195.65;76.50;;;;;;;-0.75;90.47;101308.13;1665873;84;25848;-81
2021/12/12 01:11:19;;;;;;;203.40;75.00;;;;;;;-0.72;90.46;101309.23;1665414;84;26612;-81
2021/12/12 01:13:47;;;;;;;206.57;76.92;;;;;;;-0.74;90.34;101297.50;1660013;84;26081;-80
2021/12/12 01:16:19;;;;;;;202.03;72.40;;;;;;;-0.73;90.34;101300.52;1659753;86;25828;-80
2021/12/12 01:18:52;;;;;;;208.75;79.22;;;;;;;-0.75;90.29;101302.88;1667588;84;29638;-81
2021/12/12 01:21:29;;;;;;;209.40;77.30;;;;;;;-0.74;90.40;101305.39;1667908;84;25851;-81
2021/12/12 01:24:04;;;;;;;196.30;73.95;;;;;;;-0.72;90.38;101298.25;1659801;86;25862;-81
2021/12/12 01:26:32;;;;;;;208.53;74.90;;;;;;;-0.70;90.34;101296.83;1659376;85;26002;-81
2021/12/12 01:29:00;;;;;;;213.03;76.35;;;;;;;-0.71;90.25;101302.58;1660037;85;25923;-83
2021/12/12 01:31:32;;;;;;;213.87;75.57;;;;;;;-0.71;90.34;101301.27;1663844;84;27472;-80
2021/12/12 01:34:14;;;;;;;214.60;77.65;;;;;;;-0.70;90.36;101306.88;1659383;86;25844;-80
2021/12/12 01:37:05;;;;;;;216.53;75.55;;;;;;;-0.67;90.46;101307.17;1655077;86;26016;-80
2021/12/12 01:39:24;;;;;;;211.30;78.35;;;;;;;-0.67;90.30;101313.74;1664617;84;26767;-81
2021/12/12 01:42:01;;;;;;;221.55;79.80;;;;;;;-0.67;90.32;101308.02;1669203;84;25497;-81
2021/12/12 01:44:45;;;;;;;200.43;67.95;;;;;;;-0.67;90.24;101305.39;1669396;84;27463;-81
2021/12/12 01:47:19;;;;;;;197.65;73.72;;;;;;;-0.68;90.18;101300.23;1673735;84;26296;-81
2021/12/12 01:49:51;;;;;;;204.57;73.47;;;;;;;-0.75;89.97;101298.47;1671411;84;26507;-82
2021/12/12 01:52:23;;;;;;;204.87;72.58;;;;;;;-0.78;89.98;101306.53;1661010;84;26680;-80
2021/12/12 01:54:54;;;;;;;200.57;71.40;;;;;;;-0.81;90.00;101315.92;1669058;84;25916;-80
2021/12/12 01:57:26;;;;;;;204.80;77.95;;;;;;;-0.83;90.00;101313.86;1661448;84;27483;-80
2021/12/12 01:59:55;;;;;;;211.68;79.05;;;;;;;-0.84;90.27;101319.62;1668821;84;26569;-80
2021/12/12 02:02:27;;;;;;;199.35;73.37;;;;;;;-0.82;90.34;101316.88;1660435;84;25376;-80
2021/12/12 02:05:01;;;;;;;151.12;62.05;;;;;;;-0.78;90.37;101314.42;1663249;84;26738;-82
2021/12/12 02:07:33;;;;;;;130.60;55.17;;;;;;;-0.81;89.85;101316.77;1667593;84;25986;-80
2021/12/12 02:10:04;;;;;;;151.00;62.43;;;;;;;-0.90;89.80;101325.23;1664066;84;27476;-80
2021/12/12 02:12:31;;;;;;;139.95;58.42;;;;;;;-0.89;90.15;101321.68;1663844;84;25968;-81
2021/12/12 02:14:59;;;;;;;139.15;58.33;;;;;;;-0.87;90.21;101318.94;1658858;85;25763;-81
2021/12/12 02:17:37;;;;;;;140.30;59.15;;;;;;;-0.90;90.11;101318.66;1662208;84;26358;-80
2021/12/12 02:20:18;;;;;;;149.45;59.40;;;;;;;-0.94;89.82;101315.03;1664188;84;25653;-81
2021/12/12 02:22:58;;;;;;;136.60;54.30;;;;;;;-0.93;90.18;101326.77;1665801;84;27552;-81
2021/12/12 02:36:21;;;;;;;158.70;64.92;;;;;;;-0.81;90.41;101327.30;1646308;84;27498;-81
2021/12/12 02:38:51;;;;;;;160.88;64.37;;;;;;;-0.81;90.36;101329.92;1666334;84;25914;-80
2021/12/12 02:41:21;;;;;;;156.67;62.60;;;;;;;-0.78;90.31;101328.89;1675820;84;25864;-80
2021/12/12 02:43:52;;;;;;;168.52;65.08;;;;;;;-0.75;90.35;101330.03;1659408;85;25814;-81
2021/12/12 02:46:27;;;;;;;148.22;57.60;;;;;;;-0.77;89.96;101328.43;1663631;84;25316;-80
2021/12/12 02:48:58;;;;;;;152.75;58.92;;;;;;;-0.79;90.07;101336.39;1671046;84;28372;-80
2021/12/12 02:51:21;;;;;;;153.90;62.50;;;;;;;-0.80;90.09;101332.09;1659746;84;26517;-81
2021/12/12 02:53:54;;;;;;;170.87;69.30;;;;;;;-0.77;90.16;101336.32;1663185;84;26509;-80
2021/12/12 02:56:26;;;;;;;170.47;66.30;;;;;;;-0.76;90.16;101340.16;1668007;84;25863;-80
2021/12/12 02:58:53;;;;;;;173.17;62.48;;;;;;;-0.77;90.04;101341.94;1663492;84;25895;-81
2021/12/12 03:01:34;;;;;;;174.02;66.07;;;;;;;-0.74;90.20;101342.69;1659733;85;27478;-80
2021/12/12 03:04:02;;;;;;;170.47;63.33;;;;;;;-0.74;90.15;101340.05;1678879;84;25932;-81
2021/12/12 03:06:33;;;;;;;161.55;63.48;;;;;;;-0.74;90.09;101345.31;1659510;85;25998;-80
2021/12/12 03:09:23;;;;;;;159.37;60.98;;;;;;;-0.73;90.20;101347.02;1672023;84;25753;-80
2021/12/12 03:12:01;;;;;;;171.95;65.25;;;;;;;-0.72;90.07;101351.32;1653839;86;25317;-81
2021/12/12 03:14:32;;;;;;;174.27;66.30;;;;;;;-0.78;89.97;101348.62;1661572;84;27325;-82
2021/12/12 03:17:06;;;;;;;169.95;63.65;;;;;;;-0.76;90.23;101349.36;1659909;85;25859;-80
2021/12/12 03:19:33;;;;;;;166.62;63.58;;;;;;;-0.75;90.06;101348.91;1663645;84;25928;-81
2021/12/12 03:22:00;;;;;;;178.93;67.20;;;;;;;-0.75;90.10;101363.38;1659382;86;25839;-80
2021/12/12 03:24:27;;;;;;;174.42;70.03;;;;;;;-0.73;90.16;101367.59;1663866;84;26071;-82
2021/12/12 03:26:59;;;;;;;162.50;63.87;;;;;;;-0.72;90.21;101366.64;1671687;84;27476;-81
2021/12/12 03:29:28;;;;;;;170.43;63.50;;;;;;;-0.69;90.15;101361.20;1672108;84;26539;-80
2021/12/12 03:32:00;;;;;;;179.85;64.17;;;;;;;-0.69;90.06;101356.41;1663712;84;25862;-81
2021/12/12 03:34:32;;;;;;;169.07;64.85;;;;;;;-0.69;90.03;101361.20;1663957;84;25804;-82
2021/12/12 03:37:01;;;;;;;174.15;65.90;;;;;;;-0.67;90.06;101355.37;1661029;84;25784;-81
2021/12/12 03:39:32;;;;;;;174.95;66.42;;;;;;;-0.65;90.05;101357.89;1670778;84;27435;-81
2021/12/12 03:42:03;;;;;;;164.07;62.65;;;;;;;-0.63;90.09;101362.59;1683781;84;25765;-80
2021/12/12 03:44:32;;;;;;;;;;;;;;;-0.65;89.88;101367.95;1665004;84;25819;-81
2021/12/12 03:47:04;;;;;;;170.12;64.32;;;;;;;-0.64;89.91;101368.80;1668220;84;25839;-81
2021/12/12 03:49:33;;;;;;;173.20;66.37;;;;;;;-0.65;90.05;101368.42;1672142;84;26519;-81
2021/12/12 03:52:01;;;;;;;167.10;64.70;;;;;;;-0.63;89.97;101377.06;1671688;84;27544;-81
2021/12/12 03:54:27;;;;;;;181.63;68.05;;;;;;;-0.64;89.79;101384.09;1663617;84;26540;-81
2021/12/12 03:56:53;;;;;;;177.25;64.87;;;;;;;-0.69;89.61;101384.02;1659878;86;25795;-81
2021/12/12 03:59:20;;;;;;;184.80;69.42;;;;;;;-0.73;89.56;101383.84;1663730;84;25879;-81
2021/12/12 04:01:50;;;;;;;177.62;67.87;;;;;;;-0.77;89.72;101387.61;1659487;85;25811;-80
2021/12/12 04:04:24;;;;;;;169.45;67.58;;;;;;;-0.78;89.76;101395.97;1659983;84;27456;-81
2021/12/12 04:06:52;;;;;;;179.18;65.85;;;;;;;-0.77;90.03;101395.86;1665616;84;25968;-80
2021/12/12 04:09:20;;;;;;;183.82;69.65;;;;;;;-0.75;90.15;101403.67;1675295;84;25818;-81
2021/12/12 04:11:52;;;;;;;173.05;63.35;;;;;;;-0.72;90.11;101406.09;1667951;84;26551;-80
2021/12/12 04:14:20;;;;;;;177.20;68.57;;;;;;;-0.70;90.01;101410.80;1667755;84;26019;-80
2021/12/12 04:16:52;;;;;;;175.47;69.10;;;;;;;-0.73;89.73;101410.15;1659883;86;27433;-81
2021/12/12 04:19:19;;;;;;;177.72;63.28;;;;;;;-0.72;89.92;101407.88;1661900;84;25687;-81
2021/12/12 04:21:45;;;;;;;167.98;66.92;;;;;;;-0.75;89.69;101413.34;1663770;84;25898;-81
2021/12/12 04:24:29;;;;;;;180.35;70.32;;;;;;;-0.82;89.54;101417.67;1658405;84;26560;-80
2021/12/12 04:26:58;;;;;;;167.62;61.23;;;;;;;-0.86;89.60;101421.90;1656015;84;26030;-81
2021/12/12 04:29:34;;;;;;;189.57;70.15;;;;;;;-0.87;89.77;101424.14;1663296;84;27485;-81
2021/12/12 04:32:06;;;;;;;205.40;70.25;;;;;;;-0.87;89.90;101422.83;1660733;84;25982;-81
2021/12/12 04:34:37;;;;;;;188.25;71.75;;;;;;;-0.91;89.75;101423.49;1660797;84;25856;-81
2021/12/12 04:37:05;;;;;;;211.40;75.83;;;;;;;-0.90;89.93;101428.29;1660499;84;25784;-80
2021/12/12 04:39:38;;;;;;;210.75;77.58;;;;;;;-0.90;89.83;101443.58;1663577;84;25953;-81
2021/12/12 04:42:15;;;;;;;209.55;77.70;;;;;;;-0.90;89.92;101440.95;1663503;84;27516;-81
2021/12/12 04:44:48;;;;;;;191.22;67.47;;;;;;;-0.92;89.98;101446.77;1654235;86;25970;-81
2021/12/12 04:50:31;;;;;;;218.73;78.70;;;;;;;-0.91;90.08;101443.22;1657592;86;25791;-81
2021/12/12 04:53:07;;;;;;;218.73;75.50;;;;;;;-0.89;90.07;101443.97;1663767;84;25968;-80
2021/12/12 04:55:39;;;;;;;237.23;81.30;;;;;;;-0.89;90.04;101442.65;1659571;86;27544;-81
2021/12/12 04:58:14;;;;;;;229.43;84.20;;;;;;;-0.88;90.09;101447.45;1676332;84;25930;-81
2021/12/12 05:00:57;;;;;;;258.85;88.75;;;;;;;-0.91;89.95;101453.73;1673822;85;25861;-81
2021/12/12 05:03:58;;;;;;;248.20;85.83;;;;;;;-0.92;90.00;101453.84;1669686;84;26565;-81
2021/12/12 05:06:41;;;;;;;226.22;79.35;;;;;;;-0.91;90.11;101448.48;1671542;84;25946;-80
2021/12/12 05:09:15;;;;;;;217.53;78.10;;;;;;;-0.94;90.07;101449.97;1656863;86;27685;-81
2021/12/12 05:11:56;;;;;;;241.78;86.22;;;;;;;-0.99;89.84;101455.98;1656211;84;25710;-80
2021/12/12 05:14:27;;;;;;;239.95;82.53;;;;;;;-1.04;89.98;101458.04;1656255;84;26624;-81
2021/12/12 05:17:07;;;;;;;251.32;92.57;;;;;;;-1.07;90.14;101460.84;1664736;84;26612;-82
2021/12/12 05:19:34;;;;;;;245.75;86.87;;;;;;;-1.06;90.23;101458.60;1659399;84;25878;-82
2021/12/12 05:22:11;;;;;;;252.75;93.40;;;;;;;-1.06;90.25;101455.97;1654277;84;28297;-80
2021/12/12 05:24:39;;;;;;;247.35;91.75;;;;;;;-1.05;90.20;101458.96;1654888;84;25896;-80
2021/12/12 05:27:13;;;;;;;262.48;95.60;;;;;;;-1.08;90.11;101455.68;1656205;86;25852;-80
2021/12/12 05:29:44;;;;;;;267.93;96.57;;;;;;;-1.12;90.16;101448.46;1659603;84;25769;-80
2021/12/12 05:32:14;;;;;;;229.43;81.70;;;;;;;-1.13;90.03;101455.09;1661641;84;25797;-81
2021/12/12 05:34:48;;;;;;;254.63;98.07;;;;;;;-1.17;89.93;101458.85;1665494;84;27461;-82
2021/12/12 05:37:14;;;;;;;263.70;101.82;;;;;;;-1.22;89.92;101465.69;1668550;84;25773;-80
2021/12/12 05:39:41;;;;;;;262.80;104.15;;;;;;;-1.23;90.03;101465.79;1657527;84;25837;-81
2021/12/12 05:42:08;;;;;;;263.23;108.03;;;;;;;-1.22;90.05;101472.76;1662143;84;26053;-80
2021/12/12 05:44:35;;;;;;;249.95;104.78;;;;;;;-1.21;90.20;101473.97;1669169;84;26487;-81
2021/12/12 05:47:06;;;;;;;252.57;104.30;;;;;;;-1.17;90.21;101474.63;1639188;86;27490;-80
2021/12/12 05:49:38;;;;;;;241.55;99.80;;;;;;;-1.20;89.77;101474.83;1663088;85;26488;-80
2021/12/12 05:52:15;;;;;;;257.10;104.25;;;;;;;-1.25;89.71;101472.46;1658643;86;25328;-80
2021/12/12 05:54:44;;;;;;;253.88;98.05;;;;;;;-1.28;89.58;101483.63;1667464;84;26670;-80
2021/12/12 05:57:12;;;;;;;239.00;96.08;;;;;;;-1.31;89.83;101492.54;1661909;84;26661;-80
2021/12/12 05:59:39;;;;;;;239.88;98.45;;;;;;;-1.32;89.83;101488.20;1668310;84;27461;-80
2021/12/12 06:02:07;;;;;;;254.70;102.72;;;;;;;-1.30;90.02;101493.36;1666426;84;25848;-80
2021/12/12 06:04:35;;;;;;;258.52;103.20;;;;;;;-1.28;90.12;101500.22;1663234;84;25882;-80
2021/12/12 06:07:07;;;;;;;273.85;107.72;;;;;;;-1.27;89.91;101500.62;1665441;84;25776;-81
2021/12/12 06:09:36;;;;;;;268.85;104.45;;;;;;;-1.27;89.83;101501.08;1659777;84;25881;-81
2021/12/12 06:12:05;;;;;;;242.18;92.33;;;;;;;-1.25;89.91;101501.37;1660378;84;27480;-81
2021/12/12 06:14:33;;;;;;;263.80;102.47;;;;;;;-1.26;89.66;101502.30;1663479;84;25886;-80
2021/12/12 06:17:01;;;;;;;231.90;90.03;;;;;;;-1.25;89.74;101501.83;1663236;84;26495;-81
2021/12/12 06:19:31;;;;;;;250.35;102.38;;;;;;;-1.31;89.49;101513.56;1667833;84;25816;-81
2021/12/12 06:22:00;;;;;;;250.87;96.60;;;;;;;-1.34;89.44;101516.36;1663731;84;25869;-81
2021/12/12 06:24:29;;;;;;;255.03;98.40;;;;;;;-1.36;89.61;101522.17;1649153;84;27455;-81
2021/12/12 06:27:07;;;;;;;246.03;99.55;;;;;;;-1.42;89.44;101522.98;1659371;86;25749;-80
2021/12/12 06:29:34;;;;;;;266.48;103.72;;;;;;;-1.44;89.57;101523.09;1666084;84;25931;-81
2021/12/12 06:32:03;;;;;;;252.80;95.15;;;;;;;-1.42;89.62;101523.84;1664146;84;25874;-80
2021/12/12 06:34:30;;;;;;;240.22;98.72;;;;;;;-1.43;89.49;101526.08;1662788;84;25833;-81
2021/12/12 06:36:56;;;;;;;243.82;98.85;;;;;;;-1.45;89.36;101527.95;1667198;84;27465;-80
2021/12/12 06:39:23;;;;;;;230.37;94.00;;;;;;;-1.51;89.07;101525.67;1668624;84;25995;-81
2021/12/12 06:41:52;;;;;;;242.18;92.60;;;;;;;-1.56;89.23;101527.70;1666552;84;25808;-81
2021/12/12 06:57:58;;;;;;;235.72;116.73;;;;;;;-0.93;87.11;101553.38;1806291;77;27817;-80
2021/12/12 07:00:27;;;;;;;209.95;92.05;;;;;;;-0.83;87.31;101546.63;1798192;78;26419;-80
2021/12/12 07:02:54;;;;;;;213.75;89.60;;;;;;;-0.99;87.34;101546.70;1790162;79;27601;-81
2021/12/12 07:05:25;;;;;;;200.32;86.63;;;;;;;-1.13;87.53;101544.02;1790187;79;26537;-80
2021/12/12 07:07:54;;;;;;;214.93;86.28;;;;;;;-1.19;87.95;101555.36;1790614;79;25872;-81
2021/12/12 07:10:25;;;;;;;198.00;82.05;;;;;;;-1.26;88.04;101549.60;1790306;79;25835;-81
2021/12/12 07:12:56;;;;;;;195.70;83.22;;;;;;;-1.33;88.09;101554.86;1790157;79;25253;-81
2021/12/12 07:15:37;;;;;;;197.60;80.85;;;;;;;-1.36;88.19;101547.59;1791427;79;28261;-80
2021/12/12 07:18:09;;;;;;;;;;;;;;;-1.41;88.07;101553.60;1800959;78;26274;-81
2021/12/12 07:20:36;;;;;;;206.95;80.62;;;;;;;-1.52;87.97;101580.48;1793147;78;26702;-81
2021/12/12 07:23:08;;;;;;;218.78;88.35;;;;;;;-1.65;88.09;101586.04;1795210;78;25730;-81
2021/12/12 07:25:37;;;;;;;222.30;92.97;;;;;;;-1.68;88.29;101596.70;1794706;78;25778;-80
2021/12/12 07:28:05;;;;;;;217.35;101.30;;;;;;;-1.72;88.52;101597.34;1798145;78;28308;-80
2021/12/12 07:30:33;;;;;;;181.02;79.12;;;;;;;-1.73;88.64;101592.16;1792773;78;25863;-81
2021/12/12 07:32:59;;;;;;;185.37;78.72;;;;;;;-1.73;88.52;101590.38;1790156;79;25739;-80
2021/12/12 07:35:28;;;;;;;169.60;68.37;;;;;;;-1.79;88.61;101590.73;1797794;78;25777;-80
2021/12/12 07:37:55;;;;;;;172.82;72.05;;;;;;;-1.80;88.57;101595.61;1797567;78;26095;-80
2021/12/12 07:40:21;;;;;;;193.87;76.60;;;;;;;-1.86;88.53;101598.55;1790712;79;27512;-81
2021/12/12 07:42:50;;;;;;;192.77;72.70;;;;;;;-1.87;88.79;101601.27;1794335;78;25868;-80
2021/12/12 07:45:20;;;;;;;194.70;84.87;;;;;;;-1.87;88.86;101606.52;1800116;78;25769;-80
2021/12/12 07:47:48;;;;;;;188.03;75.83;;;;;;;-1.86;89.05;101609.05;1790552;78;25831;-81
2021/12/12 07:50:18;;;;;;;186.82;73.95;;;;;;;-1.83;89.06;101610.67;1792986;78;25844;-81
2021/12/12 07:52:46;;;;;;;174.23;65.70;;;;;;;-1.84;88.81;101612.93;1798173;78;27454;-80
2021/12/12 07:55:14;;;;;;;172.43;69.55;;;;;;;-1.92;88.69;101608.08;1794627;78;25256;-81
2021/12/12 07:57:41;;;;;;;194.87;76.67;;;;;;;-1.98;88.95;101610.19;1801223;78;25935;-80
2021/12/12 08:00:16;;;;;;;158.93;62.00;;;;;;;-1.94;89.10;101609.94;1798829;78;25954;-81
2021/12/12 08:02:46;;;;;;;169.00;66.97;;;;;;;-1.91;89.06;101608.93;1791920;78;25897;-80
2021/12/12 08:05:14;;;;;;;183.60;75.95;;;;;;;-1.95;88.87;101617.45;1793255;78;27451;-81
2021/12/12 08:07:43;;;;;;;183.45;80.62;;;;;;;-1.98;88.96;101616.75;1789174;79;25897;-81
2021/12/12 08:10:13;;;;;;;221.18;89.62;;;;;;;-2.00;89.13;101627.34;1791044;78;26722;-80
2021/12/12 08:12:42;;;;;;;202.53;83.47;;;;;;;-1.98;89.33;101633.81;1794325;78;26569;-81
2021/12/12 08:15:12;;;;;;;192.95;76.80;;;;;;;-1.93;89.51;101635.73;1797962;78;25880;-81
2021/12/12 08:17:40;;;;;;;182.80;71.75;;;;;;;-1.89;89.55;101629.39;1793961;78;28100;-80
2021/12/12 08:20:10;;;;;;;192.35;73.83;;;;;;;-1.92;89.46;101627.77;1793656;78;25728;-80
2021/12/12 08:22:37;;;;;;;186.50;70.87;;;;;;;-1.92;89.56;101632.16;1790501;79;25816;-80
2021/12/12 08:25:08;;;;;;;140.95;54.42;;;;;;;-1.92;89.58;101625.59;1789073;79;25782;-80
2021/12/12 08:27:35;;;;;;;166.70;63.85;;;;;;;-1.91;89.75;101635.19;1791708;78;25795;-81
2021/12/12 08:30:05;;;;;;;183.70;80.72;;;;;;;-1.93;89.74;101629.17;1788546;78;28234;-80
2021/12/12 08:32:31;;;;;;;197.17;80.55;;;;;;;-1.96;89.97;101620.98;1800067;78;25739;-81
2021/12/12 08:34:57;;;;;;;187.82;70.70;;;;;;;-1.93;90.12;101623.92;1794802;78;25908;-80
2021/12/12 08:37:29;;;;;;;179.25;71.80;;;;;;;-1.92;90.23;101628.22;1798061;78;25733;-81
2021/12/12 08:39:56;;;;;;;188.10;67.80;;;;;;;-1.92;90.23;101629.54;1796985;78;25788;-81
2021/12/12 08:42:26;;;;;;;179.70;68.10;;;;;;;-1.94;90.16;101626.15;1796525;78;28340;-80
2021/12/12 08:44:51;;;;;;;180.60;66.10;;;;;;;-1.90;90.47;101632.92;1793975;78;25816;-81
2021/12/12 08:47:18;;;;;;;172.13;64.32;;;;;;;-1.88;90.50;101633.72;1793112;78;26074;-81
2021/12/12 08:49:44;;;;;;;176.70;67.67;;;;;;;-1.85;90.41;101632.23;1793951;78;25884;-80
2021/12/12 08:52:16;;;;;;;179.23;67.27;;;;;;;-1.85;90.42;101630.91;1790193;79;25722;-81
2021/12/12 08:54:47;;;;;;;181.57;64.50;;;;;;;-1.84;90.49;101628.69;1799896;78;28185;-81
2021/12/12 08:58:17;;;;;;;;;;;;;;;-1.81;90.65;101621.94;1795580;78;25832;-81
2021/12/12 08:59:54;;;;;;;187.75;69.65;;;;;;;-1.77;90.73;101619.06;1782493;78;25955;-81
2021/12/12 09:02:21;;;;;;;168.62;66.37;;;;;;;-1.71;90.98;101617.41;1786726;79;25811;-80
2021/12/12 09:04:56;;;;;;;174.35;64.67;;;;;;;-1.68;90.72;101609.83;1789106;79;25965;-81
2021/12/12 09:07:37;;;;;;;179.30;67.67;;;;;;;-1.69;90.75;101605.04;1790672;79;28246;-80
2021/12/12 09:10:31;;;;;;;;;;;;;;;-1.62;90.82;101609.48;1784193;79;26464;-80
2021/12/12 09:13:04;;;;;;;151.07;55.85;;;;;;;-1.65;90.67;101609.19;1769520;80;25994;-80
2021/12/12 09:15:36;;;;;;;167.55;60.38;;;;;;;-1.66;90.84;101610.59;1769585;80;25869;-81
2021/12/12 09:18:07;;;;;;;174.97;61.75;;;;;;;-1.65;90.92;101614.44;1788370;78;25791;-80
2021/12/12 09:20:50;;;;;;;180.93;62.00;;;;;;;-1.65;90.96;101614.44;1784723;79;27458;-80
2021/12/12 09:23:32;;;;;;;158.20;55.30;;;;;;;-1.62;91.12;101616.06;1786749;78;26008;-80
2021/12/12 09:26:04;;;;;;;170.70;65.55;;;;;;;-1.59;91.16;101616.75;1783958;79;25983;-79
2021/12/12 09:29:12;;;;;;;192.80;75.25;;;;;;;-1.57;91.05;101607.47;1780300;80;25816;-81
2021/12/12 09:31:53;;;;;;;166.50;54.25;;;;;;;-1.54;91.19;101598.11;1737369;82;25788;-80
2021/12/12 09:34:36;;;;;;;150.03;55.03;;;;;;;-1.52;91.21;101589.68;1756277;80;26849;-80
2021/12/12 09:37:14;;;;;;;133.80;49.60;;;;;;;-1.47;91.28;101594.19;1755115;80;26272;-79
2021/12/12 09:39:48;;;;;;;143.78;49.33;;;;;;;-1.43;91.28;101587.00;1739212;81;25722;-81
2021/12/12 09:42:49;;;;;;;154.47;54.30;;;;;;;-1.35;91.34;101599.23;1750107;80;25896;-80
2021/12/12 09:45:48;;;;;;;141.32;51.73;;;;;;;-1.33;91.30;101602.63;1754440;80;25851;-80
2021/12/12 09:51:52;;;;;;;123.60;44.98;;;;;;;-1.26;91.32;101598.72;1733936;82;25909;-80
2021/12/12 09:54:34;;;;;;;124.75;43.55;;;;;;;-1.31;91.22;101598.12;1745839;80;26649;-80
2021/12/12 09:57:34;;;;;;;121.82;45.30;;;;;;;-1.31;91.32;101583.20;1727681;82;27115;-79
2021/12/12 10:00:21;;;;;;;134.63;47.65;;;;;;;-1.28;91.45;101578.25;1743481;81;25827;-80
2021/12/12 10:03:27;;;;;;;137.47;50.52;;;;;;;-1.23;91.55;101588.02;1717038;81;27536;-80
2021/12/12 10:06:09;;;;;;;142.28;48.85;;;;;;;-1.15;91.75;101600.24;1751533;81;25818;-80
2021/12/12 10:09:16;;;;;;;168.40;59.83;;;;;;;-1.13;91.53;101604.48;1803792;78;25738;-80
2021/12/12 10:12:17;;;;;;;145.82;60.92;;;;;;;-1.07;91.72;101605.93;1798075;78;25811;-80
2021/12/12 10:15:04;;;;;;;149.47;61.48;;;;;;;-1.04;91.53;101610.53;1801762;78;25793;-80
2021/12/12 10:17:57;;;;;;;188.05;77.53;;;;;;;-1.08;91.20;101601.59;1792886;78;27503;-81
2021/12/12 10:20:32;;;;;;;172.75;68.70;;;;;;;-1.06;91.34;101601.89;1792466;78;25876;-80
2021/12/12 10:23:13;;;;;;;151.78;57.98;;;;;;;-1.04;91.28;101600.02;1788932;80;25880;-80
2021/12/12 10:26:06;;;;;;;136.18;47.23;;;;;;;-1.04;91.19;101596.08;1791960;78;25683;-81
2021/12/12 10:28:44;;;;;;;116.37;41.10;;;;;;;-1.06;91.19;101594.46;1738376;81;25866;-81
2021/12/12 10:31:39;;;;;;;132.20;45.45;;;;;;;-1.09;90.97;101584.14;1743011;81;27536;-80
2021/12/12 10:34:16;;;;;;;131.22;44.73;;;;;;;-1.13;91.13;101587.39;1752179;81;26555;-80
2021/12/12 10:37:00;;;;;;;118.33;41.10;;;;;;;-1.07;91.49;101581.78;1797958;78;25741;-80
2021/12/12 10:39:40;;;;;;;124.80;43.87;;;;;;;-1.04;91.47;101580.30;1794918;78;26567;-80
2021/12/12 10:42:12;;;;;;;138.25;46.23;;;;;;;-1.02;91.47;101579.73;1793058;78;25352;-80
2021/12/12 10:44:55;;;;;;;139.12;48.83;;;;;;;-1.00;91.41;101569.13;1795412;78;28471;-81
2021/12/12 10:47:30;;;;;;;153.20;52.30;;;;;;;-1.00;91.38;101566.49;1788874;80;25901;-81
2021/12/12 10:50:18;;;;;;;141.57;47.55;;;;;;;-0.98;91.54;101574.67;1793256;78;25981;-81
2021/12/12 10:52:59;;;;;;;150.50;51.15;;;;;;;-0.93;91.54;101566.52;1746179;78;26767;-81
2021/12/12 10:55:48;;;;;;;162.77;54.05;;;;;;;-0.89;91.60;101574.61;1794889;78;25794;-80
2021/12/12 10:58:42;;;;;;;143.50;51.85;;;;;;;-0.84;91.77;101572.10;1796202;78;28311;-81
2021/12/12 11:01:20;;;;;;;139.32;51.88;;;;;;;-0.81;91.59;101578.48;1780500;78;25842;-80
2021/12/12 11:03:58;;;;;;;153.53;63.87;;;;;;;-0.79;91.79;101571.80;1793260;78;25909;-80
2021/12/12 11:06:35;;;;;;;146.13;54.00;;;;;;;-0.73;91.72;101573.24;1792519;78;26014;-81
2021/12/12 11:09:15;;;;;;;146.05;50.05;;;;;;;-0.67;91.84;101564.98;1796904;78;25897;-80
2021/12/12 11:11:46;;;;;;;146.98;63.35;;;;;;;-0.59;91.92;101571.94;1796248;78;27475;-81
2021/12/12 11:14:27;;;;;;;148.80;55.55;;;;;;;-0.56;91.54;101580.52;1797256;78;26111;-81
2021/12/12 11:17:05;;;;;;;142.68;57.25;;;;;;;-0.55;91.51;101570.34;1793846;78;25723;-81
2021/12/12 11:19:39;;;;;;;127.82;44.25;;;;;;;-0.51;91.42;101573.66;1799442;78;25573;-81
2021/12/12 11:22:31;;;;;;;120.70;45.60;;;;;;;-0.49;91.27;101569.15;1796095;78;25569;-81
2021/12/12 11:25:20;;;;;;;127.40;45.78;;;;;;;-0.51;90.97;101574.48;1788661;80;27439;-81
2021/12/12 11:27:52;;;;;;;111.42;42.10;;;;;;;-0.53;91.10;101568.47;1789282;78;25591;-81
2021/12/12 11:30:27;;;;;;;106.27;40.60;;;;;;;-0.49;91.26;101567.83;1789773;79;25698;-81
2021/12/12 11:32:56;;;;;;;122.07;44.80;;;;;;;-0.48;91.17;101558.98;1795493;78;25684;-81
2021/12/12 11:35:26;;;;;;;118.00;41.20;;;;;;;-0.47;91.16;101566.77;1799054;78;25822;-81
2021/12/12 11:38:07;;;;;;;130.30;49.93;;;;;;;-0.45;91.12;101569.34;1797112;78;27472;-81
2021/12/12 11:40:41;;;;;;;126.58;51.25;;;;;;;-0.46;91.12;101582.95;1797824;78;25882;-81
2021/12/12 11:43:48;;;;;;;137.60;48.45;;;;;;;-0.45;91.17;101585.95;1801877;78;25952;-81
2021/12/12 11:46:26;;;;;;;125.50;44.90;;;;;;;-0.43;91.38;101590.68;1793111;78;25456;-81
2021/12/12 11:48:59;;;;;;;128.02;43.85;;;;;;;-0.43;91.20;101589.36;1789170;80;25884;-81
2021/12/12 11:51:31;;;;;;;131.00;45.03;;;;;;;-0.44;91.00;101587.66;1806559;78;27450;-81
2021/12/12 11:54:29;;;;;;;128.93;44.98;;;;;;;-0.43;91.22;101591.14;1791818;78;25804;-81
2021/12/12 11:57:19;;;;;;;103.27;37.20;;;;;;;-0.43;91.07;101589.83;1798295;78;25731;-81
2021/12/12 12:00:15;;;;;;;131.40;45.30;;;;;;;-0.45;91.07;101586.44;1789444;78;25771;-81
2021/12/12 12:02:58;;;;;;;124.47;44.30;;;;;;;-0.47;91.07;101587.83;1790138;78;25767;-81